sensor_id;sensor_type;location;lat;lon;timestamp;P1;durP1;ratioP1;P2;durP2;ratioP2
23115;SDS011;11727;52.134;5.052;2023-03-07T00:00:39;8.00;;;1.80;;
23115;SDS011;11727;52.134;5.052;2023-03-07T00:03:05;7.75;;;1.50;;
23115;SDS011;11727;52.134;5.052;2023-03-07T00:05:31;6.97;;;1.95;;
23115;SDS011;11727;52.134;5.052;2023-03-07T00:07:57;6.15;;;1.65;;
23115;SDS011;11727;52.134;5.052;2023-03-07T00:10:26;6.93;;;1.92;;
23115;SDS011;11727;52.134;5.052;2023-03-07T00:12:52;7.55;;;2.25;;
23115;SDS011;11727;52.134;5.052;2023-03-07T00:15:17;6.07;;;2.25;;
23115;SDS011;11727;52.134;5.052;2023-03-07T00:17:43;4.30;;;1.92;;
23115;SDS011;11727;52.134;5.052;2023-03-07T00:20:09;15.60;;;3.28;;
23115;SDS011;11727;52.134;5.052;2023-03-07T00:22:43;5.47;;;2.20;;
23115;SDS011;11727;52.134;5.052;2023-03-07T00:25:10;7.20;;;2.83;;
23115;SDS011;11727;52.134;5.052;2023-03-07T00:27:36;4.25;;;1.85;;
23115;SDS011;11727;52.134;5.052;2023-03-07T00:30:02;6.07;;;2.90;;
23115;SDS011;11727;52.134;5.052;2023-03-07T00:32:28;7.78;;;2.33;;
23115;SDS011;11727;52.134;5.052;2023-03-07T00:34:55;6.90;;;2.47;;
23115;SDS011;11727;52.134;5.052;2023-03-07T00:37:22;7.22;;;1.80;;
23115;SDS011;11727;52.134;5.052;2023-03-07T00:39:48;6.18;;;2.60;;
23115;SDS011;11727;52.134;5.052;2023-03-07T00:42:14;8.00;;;3.05;;
23115;SDS011;11727;52.134;5.052;2023-03-07T00:44:39;7.97;;;2.47;;
23115;SDS011;11727;52.134;5.052;2023-03-07T00:47:05;4.50;;;2.17;;
23115;SDS011;11727;52.134;5.052;2023-03-07T00:49:31;6.70;;;2.85;;
23115;SDS011;11727;52.134;5.052;2023-03-07T00:51:56;6.80;;;2.38;;
23115;SDS011;11727;52.134;5.052;2023-03-07T00:54:23;6.05;;;2.38;;
23115;SDS011;11727;52.134;5.052;2023-03-07T00:56:48;8.07;;;2.20;;
23115;SDS011;11727;52.134;5.052;2023-03-07T00:59:14;6.20;;;2.28;;
23115;SDS011;11727;52.134;5.052;2023-03-07T01:01:40;9.40;;;2.33;;
23115;SDS011;11727;52.134;5.052;2023-03-07T01:04:05;5.10;;;2.05;;
23115;SDS011;11727;52.134;5.052;2023-03-07T01:06:32;6.40;;;1.63;;
23115;SDS011;11727;52.134;5.052;2023-03-07T01:08:59;4.38;;;2.00;;
23115;SDS011;11727;52.134;5.052;2023-03-07T01:11:27;7.75;;;1.20;;
23115;SDS011;11727;52.134;5.052;2023-03-07T01:13:54;10.13;;;2.13;;
23115;SDS011;11727;52.134;5.052;2023-03-07T01:16:25;3.58;;;1.10;;
23115;SDS011;11727;52.134;5.052;2023-03-07T01:18:53;5.40;;;0.70;;
23115;SDS011;11727;52.134;5.052;2023-03-07T01:21:22;4.50;;;0.90;;
23115;SDS011;11727;52.134;5.052;2023-03-07T01:23:49;6.30;;;1.15;;
23115;SDS011;11727;52.134;5.052;2023-03-07T01:26:23;4.90;;;0.93;;
23115;SDS011;11727;52.134;5.052;2023-03-07T01:28:51;8.30;;;0.90;;
23115;SDS011;11727;52.134;5.052;2023-03-07T01:31:18;6.90;;;1.35;;
23115;SDS011;11727;52.134;5.052;2023-03-07T01:33:45;4.40;;;1.50;;
23115;SDS011;11727;52.134;5.052;2023-03-07T01:38:45;4.45;;;1.38;;
23115;SDS011;11727;52.134;5.052;2023-03-07T01:41:12;5.80;;;1.20;;
23115;SDS011;11727;52.134;5.052;2023-03-07T01:43:38;2.17;;;0.98;;
23115;SDS011;11727;52.134;5.052;2023-03-07T01:48:45;4.03;;;1.55;;
23115;SDS011;11727;52.134;5.052;2023-03-07T01:51:31;10.43;;;1.20;;
23115;SDS011;11727;52.134;5.052;2023-03-07T01:54:00;6.25;;;0.88;;
23115;SDS011;11727;52.134;5.052;2023-03-07T01:56:27;2.92;;;0.85;;
23115;SDS011;11727;52.134;5.052;2023-03-07T01:58:53;5.78;;;0.90;;
23115;SDS011;11727;52.134;5.052;2023-03-07T02:01:19;4.57;;;1.00;;
23115;SDS011;11727;52.134;5.052;2023-03-07T02:06:33;2.30;;;0.90;;
23115;SDS011;11727;52.134;5.052;2023-03-07T02:09:00;4.70;;;1.30;;
23115;SDS011;11727;52.134;5.052;2023-03-07T02:11:27;5.20;;;0.80;;
23115;SDS011;11727;52.134;5.052;2023-03-07T02:13:53;4.10;;;1.15;;
23115;SDS011;11727;52.134;5.052;2023-03-07T02:16:19;2.28;;;1.08;;
23115;SDS011;11727;52.134;5.052;2023-03-07T02:18:45;5.40;;;0.98;;
23115;SDS011;11727;52.134;5.052;2023-03-07T02:23:53;4.53;;;0.73;;
23115;SDS011;11727;52.134;5.052;2023-03-07T02:28:56;1.38;;;0.60;;
23115;SDS011;11727;52.134;5.052;2023-03-07T02:31:23;4.68;;;0.50;;
23115;SDS011;11727;52.134;5.052;2023-03-07T02:33:49;6.57;;;0.70;;
23115;SDS011;11727;52.134;5.052;2023-03-07T02:36:22;3.92;;;0.80;;
23115;SDS011;11727;52.134;5.052;2023-03-07T02:38:51;2.95;;;0.90;;
23115;SDS011;11727;52.134;5.052;2023-03-07T02:41:21;3.88;;;0.70;;
23115;SDS011;11727;52.134;5.052;2023-03-07T02:43:50;3.63;;;0.85;;
23115;SDS011;11727;52.134;5.052;2023-03-07T02:46:16;7.85;;;1.70;;
23115;SDS011;11727;52.134;5.052;2023-03-07T02:48:41;1.70;;;0.73;;
23115;SDS011;11727;52.134;5.052;2023-03-07T02:51:07;5.90;;;0.95;;
23115;SDS011;11727;52.134;5.052;2023-03-07T02:53:32;4.95;;;0.70;;
23115;SDS011;11727;52.134;5.052;2023-03-07T02:55:58;1.10;;;0.52;;
23115;SDS011;11727;52.134;5.052;2023-03-07T02:58:24;6.28;;;1.05;;
23115;SDS011;11727;52.134;5.052;2023-03-07T03:00:49;4.43;;;1.17;;
23115;SDS011;11727;52.134;5.052;2023-03-07T03:03:15;6.95;;;1.50;;
23115;SDS011;11727;52.134;5.052;2023-03-07T03:05:41;4.82;;;1.13;;
23115;SDS011;11727;52.134;5.052;2023-03-07T03:08:06;6.78;;;1.05;;
23115;SDS011;11727;52.134;5.052;2023-03-07T03:10:32;3.67;;;1.27;;
23115;SDS011;11727;52.134;5.052;2023-03-07T03:12:57;7.70;;;1.00;;
23115;SDS011;11727;52.134;5.052;2023-03-07T03:15:23;5.22;;;0.75;;
23115;SDS011;11727;52.134;5.052;2023-03-07T03:17:48;4.63;;;0.80;;
23115;SDS011;11727;52.134;5.052;2023-03-07T03:20:17;3.42;;;1.27;;
23115;SDS011;11727;52.134;5.052;2023-03-07T03:22:43;4.93;;;0.90;;
23115;SDS011;11727;52.134;5.052;2023-03-07T03:25:09;6.50;;;0.85;;
23115;SDS011;11727;52.134;5.052;2023-03-07T03:27:36;4.78;;;1.35;;
23115;SDS011;11727;52.134;5.052;2023-03-07T03:30:05;11.38;;;1.33;;
23115;SDS011;11727;52.134;5.052;2023-03-07T03:32:33;4.63;;;1.27;;
23115;SDS011;11727;52.134;5.052;2023-03-07T03:35:00;7.57;;;0.85;;
23115;SDS011;11727;52.134;5.052;2023-03-07T03:37:26;7.47;;;0.85;;
23115;SDS011;11727;52.134;5.052;2023-03-07T03:39:52;3.05;;;0.90;;
23115;SDS011;11727;52.134;5.052;2023-03-07T03:42:20;11.82;;;1.27;;
23115;SDS011;11727;52.134;5.052;2023-03-07T03:44:46;4.25;;;1.05;;
23115;SDS011;11727;52.134;5.052;2023-03-07T03:47:11;8.10;;;1.42;;
23115;SDS011;11727;52.134;5.052;2023-03-07T03:49:37;8.85;;;1.00;;
23115;SDS011;11727;52.134;5.052;2023-03-07T03:52:03;7.55;;;1.10;;
23115;SDS011;11727;52.134;5.052;2023-03-07T03:54:29;4.82;;;1.20;;
23115;SDS011;11727;52.134;5.052;2023-03-07T03:56:55;3.17;;;1.27;;
23115;SDS011;11727;52.134;5.052;2023-03-07T03:59:20;7.65;;;0.93;;
23115;SDS011;11727;52.134;5.052;2023-03-07T04:01:46;1.85;;;0.90;;
23115;SDS011;11727;52.134;5.052;2023-03-07T04:04:13;4.47;;;1.30;;
23115;SDS011;11727;52.134;5.052;2023-03-07T04:06:39;5.15;;;1.38;;
23115;SDS011;11727;52.134;5.052;2023-03-07T04:09:06;6.05;;;1.23;;
23115;SDS011;11727;52.134;5.052;2023-03-07T04:11:33;3.45;;;1.20;;
23115;SDS011;11727;52.134;5.052;2023-03-07T04:13:59;4.65;;;1.50;;
23115;SDS011;11727;52.134;5.052;2023-03-07T04:16:26;4.50;;;1.85;;
23115;SDS011;11727;52.134;5.052;2023-03-07T04:18:51;3.85;;;1.23;;
23115;SDS011;11727;52.134;5.052;2023-03-07T04:21:18;5.90;;;1.15;;
23115;SDS011;11727;52.134;5.052;2023-03-07T04:23:47;5.88;;;2.10;;
23115;SDS011;11727;52.134;5.052;2023-03-07T04:26:40;4.80;;;2.33;;
23115;SDS011;11727;52.134;5.052;2023-03-07T04:29:11;11.93;;;1.35;;
23115;SDS011;11727;52.134;5.052;2023-03-07T04:31:47;9.85;;;2.05;;
23115;SDS011;11727;52.134;5.052;2023-03-07T04:34:13;1.48;;;0.43;;
23115;SDS011;11727;52.134;5.052;2023-03-07T04:36:41;2.30;;;0.47;;
23115;SDS011;11727;52.134;5.052;2023-03-07T04:39:10;0.40;;;0.20;;
23115;SDS011;11727;52.134;5.052;2023-03-07T04:41:35;4.63;;;0.50;;
23115;SDS011;11727;52.134;5.052;2023-03-07T04:44:01;5.28;;;0.45;;
23115;SDS011;11727;52.134;5.052;2023-03-07T04:46:27;3.88;;;0.45;;
23115;SDS011;11727;52.134;5.052;2023-03-07T04:48:53;4.32;;;0.70;;
23115;SDS011;11727;52.134;5.052;2023-03-07T04:51:18;3.13;;;0.30;;
23115;SDS011;11727;52.134;5.052;2023-03-07T04:53:44;3.80;;;0.52;;
23115;SDS011;11727;52.134;5.052;2023-03-07T04:56:09;7.68;;;0.93;;
23115;SDS011;11727;52.134;5.052;2023-03-07T04:58:36;16.02;;;1.35;;
23115;SDS011;11727;52.134;5.052;2023-03-07T05:01:02;4.50;;;0.57;;
23115;SDS011;11727;52.134;5.052;2023-03-07T05:03:29;2.92;;;0.38;;
23115;SDS011;11727;52.134;5.052;2023-03-07T05:05:59;10.75;;;0.57;;
23115;SDS011;11727;52.134;5.052;2023-03-07T05:08:26;0.85;;;0.30;;
23115;SDS011;11727;52.134;5.052;2023-03-07T05:10:51;6.45;;;0.43;;
23115;SDS011;11727;52.134;5.052;2023-03-07T05:13:17;4.55;;;0.60;;
23115;SDS011;11727;52.134;5.052;2023-03-07T05:15:43;5.50;;;0.70;;
23115;SDS011;11727;52.134;5.052;2023-03-07T05:18:08;4.80;;;0.40;;
23115;SDS011;11727;52.134;5.052;2023-03-07T05:20:34;0.95;;;0.40;;
23115;SDS011;11727;52.134;5.052;2023-03-07T05:22:59;3.25;;;0.30;;
23115;SDS011;11727;52.134;5.052;2023-03-07T05:25:25;0.30;;;0.20;;
23115;SDS011;11727;52.134;5.052;2023-03-07T05:27:51;1.10;;;0.32;;
23115;SDS011;11727;52.134;5.052;2023-03-07T05:30:16;3.28;;;0.52;;
23115;SDS011;11727;52.134;5.052;2023-03-07T05:32:58;1.05;;;0.20;;
23115;SDS011;11727;52.134;5.052;2023-03-07T05:39:25;0.10;;;0.10;;
23115;SDS011;11727;52.134;5.052;2023-03-07T05:41:51;1.33;;;0.17;;
23115;SDS011;11727;52.134;5.052;2023-03-07T05:44:17;4.03;;;0.20;;
23115;SDS011;11727;52.134;5.052;2023-03-07T05:46:43;1.65;;;0.38;;
23115;SDS011;11727;52.134;5.052;2023-03-07T05:49:09;3.90;;;0.35;;
23115;SDS011;11727;52.134;5.052;2023-03-07T05:51:35;1.40;;;0.30;;
23115;SDS011;11727;52.134;5.052;2023-03-07T05:54:01;1.88;;;0.52;;
23115;SDS011;11727;52.134;5.052;2023-03-07T05:56:27;6.43;;;0.85;;
23115;SDS011;11727;52.134;5.052;2023-03-07T05:58:52;2.53;;;0.30;;
23115;SDS011;11727;52.134;5.052;2023-03-07T06:01:18;4.45;;;0.20;;
23115;SDS011;11727;52.134;5.052;2023-03-07T06:03:43;1.70;;;0.40;;
23115;SDS011;11727;52.134;5.052;2023-03-07T06:06:09;4.07;;;0.40;;
23115;SDS011;11727;52.134;5.052;2023-03-07T06:08:38;1.27;;;0.43;;
23115;SDS011;11727;52.134;5.052;2023-03-07T06:11:04;2.67;;;0.40;;
23115;SDS011;11727;52.134;5.052;2023-03-07T06:13:29;1.63;;;0.30;;
23115;SDS011;11727;52.134;5.052;2023-03-07T06:15:55;2.42;;;0.40;;
23115;SDS011;11727;52.134;5.052;2023-03-07T06:18:22;0.57;;;0.32;;
23115;SDS011;11727;52.134;5.052;2023-03-07T06:20:59;0.77;;;0.32;;
23115;SDS011;11727;52.134;5.052;2023-03-07T06:25:53;0.80;;;0.38;;
23115;SDS011;11727;52.134;5.052;2023-03-07T06:28:18;6.25;;;1.27;;
23115;SDS011;11727;52.134;5.052;2023-03-07T06:30:44;1.30;;;0.40;;
23115;SDS011;11727;52.134;5.052;2023-03-07T06:33:10;2.08;;;0.45;;
23115;SDS011;11727;52.134;5.052;2023-03-07T06:35:39;2.15;;;0.57;;
23115;SDS011;11727;52.134;5.052;2023-03-07T06:38:06;5.15;;;0.65;;
23115;SDS011;11727;52.134;5.052;2023-03-07T06:40:32;6.32;;;0.80;;
23115;SDS011;11727;52.134;5.052;2023-03-07T06:42:57;3.38;;;0.47;;
23115;SDS011;11727;52.134;5.052;2023-03-07T06:45:23;0.30;;;0.20;;
23115;SDS011;11727;52.134;5.052;2023-03-07T06:47:49;0.90;;;0.30;;
23115;SDS011;11727;52.134;5.052;2023-03-07T06:50:15;2.38;;;0.20;;
23115;SDS011;11727;52.134;5.052;2023-03-07T06:52:41;2.45;;;0.57;;
23115;SDS011;11727;52.134;5.052;2023-03-07T06:55:07;0.40;;;0.32;;
23115;SDS011;11727;52.134;5.052;2023-03-07T06:57:33;0.90;;;0.30;;
23115;SDS011;11727;52.134;5.052;2023-03-07T07:00:00;1.17;;;0.32;;
23115;SDS011;11727;52.134;5.052;2023-03-07T07:02:26;5.10;;;0.85;;
23115;SDS011;11727;52.134;5.052;2023-03-07T07:04:52;3.03;;;0.43;;
23115;SDS011;11727;52.134;5.052;2023-03-07T07:07:17;3.20;;;0.40;;
23115;SDS011;11727;52.134;5.052;2023-03-07T07:09:43;0.30;;;0.22;;
23115;SDS011;11727;52.134;5.052;2023-03-07T07:12:08;0.17;;;0.17;;
23115;SDS011;11727;52.134;5.052;2023-03-07T07:14:34;2.20;;;0.40;;
23115;SDS011;11727;52.134;5.052;2023-03-07T07:17:00;1.70;;;0.68;;
23115;SDS011;11727;52.134;5.052;2023-03-07T07:19:25;0.45;;;0.30;;
23115;SDS011;11727;52.134;5.052;2023-03-07T07:21:52;0.32;;;0.20;;
23115;SDS011;11727;52.134;5.052;2023-03-07T07:24:18;0.73;;;0.32;;
23115;SDS011;11727;52.134;5.052;2023-03-07T07:26:43;0.65;;;0.30;;
23115;SDS011;11727;52.134;5.052;2023-03-07T07:29:09;2.00;;;0.30;;
23115;SDS011;11727;52.134;5.052;2023-03-07T07:31:35;5.38;;;0.30;;
23115;SDS011;11727;52.134;5.052;2023-03-07T07:34:01;0.65;;;0.40;;
23115;SDS011;11727;52.134;5.052;2023-03-07T07:36:27;10.32;;;1.45;;
23115;SDS011;11727;52.134;5.052;2023-03-07T07:38:53;1.70;;;0.43;;
23115;SDS011;11727;52.134;5.052;2023-03-07T07:41:18;4.00;;;0.60;;
23115;SDS011;11727;52.134;5.052;2023-03-07T07:43:44;1.08;;;0.32;;
23115;SDS011;11727;52.134;5.052;2023-03-07T07:46:14;0.50;;;0.30;;
23115;SDS011;11727;52.134;5.052;2023-03-07T07:48:40;5.88;;;1.48;;
23115;SDS011;11727;52.134;5.052;2023-03-07T07:51:06;4.93;;;0.60;;
23115;SDS011;11727;52.134;5.052;2023-03-07T07:53:32;2.20;;;0.40;;
23115;SDS011;11727;52.134;5.052;2023-03-07T07:55:58;2.90;;;0.55;;
23115;SDS011;11727;52.134;5.052;2023-03-07T07:58:24;2.42;;;0.50;;
23115;SDS011;11727;52.134;5.052;2023-03-07T08:00:49;1.50;;;0.73;;
23115;SDS011;11727;52.134;5.052;2023-03-07T08:03:15;2.35;;;0.50;;
23115;SDS011;11727;52.134;5.052;2023-03-07T08:05:44;0.73;;;0.50;;
23115;SDS011;11727;52.134;5.052;2023-03-07T08:08:14;5.30;;;1.27;;
23115;SDS011;11727;52.134;5.052;2023-03-07T08:10:40;4.40;;;0.80;;
23115;SDS011;11727;52.134;5.052;2023-03-07T08:13:10;1.48;;;0.50;;
23115;SDS011;11727;52.134;5.052;2023-03-07T08:15:36;6.03;;;1.08;;
23115;SDS011;11727;52.134;5.052;2023-03-07T08:18:01;3.90;;;0.73;;
23115;SDS011;11727;52.134;5.052;2023-03-07T08:20:27;4.63;;;1.98;;
23115;SDS011;11727;52.134;5.052;2023-03-07T08:22:53;1.52;;;0.50;;
23115;SDS011;11727;52.134;5.052;2023-03-07T08:25:20;5.13;;;1.23;;
23115;SDS011;11727;52.134;5.052;2023-03-07T08:27:47;6.20;;;1.23;;
23115;SDS011;11727;52.134;5.052;2023-03-07T08:30:20;5.07;;;0.68;;
23115;SDS011;11727;52.134;5.052;2023-03-07T08:32:51;1.38;;;0.45;;
23115;SDS011;11727;52.134;5.052;2023-03-07T08:35:18;2.10;;;0.40;;
23115;SDS011;11727;52.134;5.052;2023-03-07T08:37:44;1.20;;;0.40;;
23115;SDS011;11727;52.134;5.052;2023-03-07T08:40:10;9.07;;;0.75;;
23115;SDS011;11727;52.134;5.052;2023-03-07T08:42:38;4.40;;;0.63;;
23115;SDS011;11727;52.134;5.052;2023-03-07T08:45:04;2.25;;;0.65;;
23115;SDS011;11727;52.134;5.052;2023-03-07T08:47:30;6.60;;;0.90;;
23115;SDS011;11727;52.134;5.052;2023-03-07T08:49:55;1.50;;;0.60;;
23115;SDS011;11727;52.134;5.052;2023-03-07T08:52:21;8.38;;;0.73;;
23115;SDS011;11727;52.134;5.052;2023-03-07T08:54:47;2.58;;;0.90;;
23115;SDS011;11727;52.134;5.052;2023-03-07T08:57:12;5.75;;;0.60;;
23115;SDS011;11727;52.134;5.052;2023-03-07T08:59:38;5.43;;;0.80;;
23115;SDS011;11727;52.134;5.052;2023-03-07T09:02:03;2.67;;;1.10;;
23115;SDS011;11727;52.134;5.052;2023-03-07T09:04:29;4.43;;;0.63;;
23115;SDS011;11727;52.134;5.052;2023-03-07T09:06:54;5.00;;;0.70;;
23115;SDS011;11727;52.134;5.052;2023-03-07T09:09:23;4.47;;;1.08;;
23115;SDS011;11727;52.134;5.052;2023-03-07T09:11:48;1.77;;;0.70;;
23115;SDS011;11727;52.134;5.052;2023-03-07T09:14:15;7.93;;;1.20;;
23115;SDS011;11727;52.134;5.052;2023-03-07T09:16:40;10.10;;;1.35;;
23115;SDS011;11727;52.134;5.052;2023-03-07T09:19:06;3.30;;;1.08;;
23115;SDS011;11727;52.134;5.052;2023-03-07T09:21:31;2.70;;;0.30;;
23115;SDS011;11727;52.134;5.052;2023-03-07T09:23:57;1.30;;;0.30;;
23115;SDS011;11727;52.134;5.052;2023-03-07T09:26:23;2.15;;;0.57;;
23115;SDS011;11727;52.134;5.052;2023-03-07T09:28:48;0.68;;;0.60;;
23115;SDS011;11727;52.134;5.052;2023-03-07T09:31:14;1.00;;;0.17;;
23115;SDS011;11727;52.134;5.052;2023-03-07T09:33:40;4.82;;;0.45;;
23115;SDS011;11727;52.134;5.052;2023-03-07T09:36:07;3.15;;;0.63;;
23115;SDS011;11727;52.134;5.052;2023-03-07T09:38:34;0.35;;;0.20;;
23115;SDS011;11727;52.134;5.052;2023-03-07T09:44:48;6.53;;;0.32;;
23115;SDS011;11727;52.134;5.052;2023-03-07T09:47:20;4.57;;;0.60;;
23115;SDS011;11727;52.134;5.052;2023-03-07T09:50:11;1.02;;;0.52;;
23115;SDS011;11727;52.134;5.052;2023-03-07T09:52:44;3.85;;;0.47;;
23115;SDS011;11727;52.134;5.052;2023-03-07T09:55:10;2.15;;;0.45;;
23115;SDS011;11727;52.134;5.052;2023-03-07T09:57:46;3.42;;;0.30;;
23115;SDS011;11727;52.134;5.052;2023-03-07T10:00:19;1.48;;;0.43;;
23115;SDS011;11727;52.134;5.052;2023-03-07T10:06:12;8.32;;;0.50;;
23115;SDS011;11727;52.134;5.052;2023-03-07T10:08:43;1.08;;;0.45;;
23115;SDS011;11727;52.134;5.052;2023-03-07T10:11:16;1.13;;;0.38;;
23115;SDS011;11727;52.134;5.052;2023-03-07T10:16:25;7.90;;;0.43;;
23115;SDS011;11727;52.134;5.052;2023-03-07T10:22:08;4.05;;;0.43;;
23115;SDS011;11727;52.134;5.052;2023-03-07T10:27:32;6.22;;;0.60;;
23115;SDS011;11727;52.134;5.052;2023-03-07T10:29:59;4.13;;;0.40;;
23115;SDS011;11727;52.134;5.052;2023-03-07T10:38:05;3.10;;;0.50;;
23115;SDS011;11727;52.134;5.052;2023-03-07T10:40:58;2.50;;;0.40;;
23115;SDS011;11727;52.134;5.052;2023-03-07T10:43:29;1.00;;;0.28;;
23115;SDS011;11727;52.134;5.052;2023-03-07T10:46:18;1.02;;;0.20;;
23115;SDS011;11727;52.134;5.052;2023-03-07T10:54:18;0.30;;;0.10;;
23115;SDS011;11727;52.134;5.052;2023-03-07T10:59:31;2.40;;;0.20;;
23115;SDS011;11727;52.134;5.052;2023-03-07T11:01:57;0.75;;;0.20;;
23115;SDS011;11727;52.134;5.052;2023-03-07T11:04:26;1.92;;;0.35;;
23115;SDS011;11727;52.134;5.052;2023-03-07T11:11:54;1.55;;;0.38;;
23115;SDS011;11727;52.134;5.052;2023-03-07T11:14:21;4.38;;;0.20;;
23115;SDS011;11727;52.134;5.052;2023-03-07T11:16:55;1.13;;;0.30;;
23115;SDS011;11727;52.134;5.052;2023-03-07T11:19:36;1.70;;;0.30;;
23115;SDS011;11727;52.134;5.052;2023-03-07T11:22:29;1.30;;;0.25;;
23115;SDS011;11727;52.134;5.052;2023-03-07T11:25:08;6.72;;;1.38;;
23115;SDS011;11727;52.134;5.052;2023-03-07T11:27:50;0.77;;;0.30;;
23115;SDS011;11727;52.134;5.052;2023-03-07T11:32:53;0.25;;;0.20;;
23115;SDS011;11727;52.134;5.052;2023-03-07T11:35:49;5.82;;;0.40;;
23115;SDS011;11727;52.134;5.052;2023-03-07T11:44:03;0.68;;;0.20;;
23115;SDS011;11727;52.134;5.052;2023-03-07T11:52:17;2.50;;;0.30;;
23115;SDS011;11727;52.134;5.052;2023-03-07T12:12:29;1.15;;;0.45;;
23115;SDS011;11727;52.134;5.052;2023-03-07T12:22:55;2.20;;;0.40;;
23115;SDS011;11727;52.134;5.052;2023-03-07T12:30:50;0.55;;;0.40;;
23115;SDS011;11727;52.134;5.052;2023-03-07T12:33:46;1.40;;;0.30;;
23115;SDS011;11727;52.134;5.052;2023-03-07T12:36:20;0.93;;;0.30;;
23115;SDS011;11727;52.134;5.052;2023-03-07T12:39:11;4.03;;;0.43;;
23115;SDS011;11727;52.134;5.052;2023-03-07T12:50:32;1.73;;;0.30;;
23115;SDS011;11727;52.134;5.052;2023-03-07T12:56:13;0.35;;;0.30;;
23115;SDS011;11727;52.134;5.052;2023-03-07T13:01:28;2.05;;;0.40;;
23115;SDS011;11727;52.134;5.052;2023-03-07T13:06:27;1.38;;;0.40;;
23115;SDS011;11727;52.134;5.052;2023-03-07T13:08:56;0.28;;;0.15;;
23115;SDS011;11727;52.134;5.052;2023-03-07T13:11:28;0.80;;;0.20;;
23115;SDS011;11727;52.134;5.052;2023-03-07T13:13:59;0.43;;;0.28;;
23115;SDS011;11727;52.134;5.052;2023-03-07T13:21:56;6.05;;;0.22;;
23115;SDS011;11727;52.134;5.052;2023-03-07T13:27:03;4.25;;;0.63;;
23115;SDS011;11727;52.134;5.052;2023-03-07T13:40:50;1.20;;;0.30;;
23115;SDS011;11727;52.134;5.052;2023-03-07T13:45:48;0.20;;;0.20;;
23115;SDS011;11727;52.134;5.052;2023-03-07T13:58:27;0.73;;;0.25;;
23115;SDS011;11727;52.134;5.052;2023-03-07T14:01:23;0.73;;;0.23;;
23115;SDS011;11727;52.134;5.052;2023-03-07T14:04:08;1.88;;;0.32;;
23115;SDS011;11727;52.134;5.052;2023-03-07T14:07:00;1.15;;;0.40;;
23115;SDS011;11727;52.134;5.052;2023-03-07T14:12:05;3.13;;;0.30;;
23115;SDS011;11727;52.134;5.052;2023-03-07T14:23:23;0.43;;;0.20;;
23115;SDS011;11727;52.134;5.052;2023-03-07T14:31:28;0.52;;;0.30;;
23115;SDS011;11727;52.134;5.052;2023-03-07T14:36:40;0.35;;;0.22;;
23115;SDS011;11727;52.134;5.052;2023-03-07T14:39:09;0.85;;;0.20;;
23115;SDS011;11727;52.134;5.052;2023-03-07T14:44:49;0.80;;;0.20;;
23115;SDS011;11727;52.134;5.052;2023-03-07T14:50:17;4.05;;;0.70;;
23115;SDS011;11727;52.134;5.052;2023-03-07T14:52:47;3.22;;;0.38;;
23115;SDS011;11727;52.134;5.052;2023-03-07T14:55:16;1.63;;;0.70;;
23115;SDS011;11727;52.134;5.052;2023-03-07T14:57:45;0.93;;;0.40;;
23115;SDS011;11727;52.134;5.052;2023-03-07T15:00:21;4.47;;;0.75;;
23115;SDS011;11727;52.134;5.052;2023-03-07T15:02:53;0.38;;;0.20;;
23115;SDS011;11727;52.134;5.052;2023-03-07T15:05:22;2.22;;;0.52;;
23115;SDS011;11727;52.134;5.052;2023-03-07T15:07:53;6.00;;;0.60;;
23115;SDS011;11727;52.134;5.052;2023-03-07T15:10:37;1.65;;;0.35;;
23115;SDS011;11727;52.134;5.052;2023-03-07T15:13:15;0.55;;;0.30;;
23115;SDS011;11727;52.134;5.052;2023-03-07T15:15:48;0.60;;;0.35;;
23115;SDS011;11727;52.134;5.052;2023-03-07T15:18:21;0.30;;;0.20;;
23115;SDS011;11727;52.134;5.052;2023-03-07T15:20:56;0.47;;;0.20;;
23115;SDS011;11727;52.134;5.052;2023-03-07T15:23:24;1.95;;;0.30;;
23115;SDS011;11727;52.134;5.052;2023-03-07T15:26:01;1.77;;;0.40;;
23115;SDS011;11727;52.134;5.052;2023-03-07T15:28:32;0.30;;;0.30;;
23115;SDS011;11727;52.134;5.052;2023-03-07T15:31:00;0.75;;;0.40;;
23115;SDS011;11727;52.134;5.052;2023-03-07T15:33:27;6.20;;;0.75;;
23115;SDS011;11727;52.134;5.052;2023-03-07T15:38:51;1.98;;;0.60;;
23115;SDS011;11727;52.134;5.052;2023-03-07T15:41:33;3.50;;;0.30;;
23115;SDS011;11727;52.134;5.052;2023-03-07T15:44:02;5.05;;;0.63;;
23115;SDS011;11727;52.134;5.052;2023-03-07T15:46:41;0.68;;;0.45;;
23115;SDS011;11727;52.134;5.052;2023-03-07T15:54:50;0.40;;;0.30;;
23115;SDS011;11727;52.134;5.052;2023-03-07T15:57:22;8.80;;;0.77;;
23115;SDS011;11727;52.134;5.052;2023-03-07T15:59:56;4.88;;;0.60;;
23115;SDS011;11727;52.134;5.052;2023-03-07T16:03:05;0.68;;;0.30;;
23115;SDS011;11727;52.134;5.052;2023-03-07T16:05:37;2.08;;;0.52;;
23115;SDS011;11727;52.134;5.052;2023-03-07T16:08:04;1.17;;;0.63;;
23115;SDS011;11727;52.134;5.052;2023-03-07T16:10:36;1.25;;;0.60;;
23115;SDS011;11727;52.134;5.052;2023-03-07T16:13:11;7.20;;;0.93;;
23115;SDS011;11727;52.134;5.052;2023-03-07T16:15:39;5.05;;;0.60;;
23115;SDS011;11727;52.134;5.052;2023-03-07T16:18:05;0.57;;;0.35;;
23115;SDS011;11727;52.134;5.052;2023-03-07T16:20:31;1.75;;;0.43;;
23115;SDS011;11727;52.134;5.052;2023-03-07T16:22:57;3.50;;;0.75;;
23115;SDS011;11727;52.134;5.052;2023-03-07T16:25:23;1.92;;;0.70;;
23115;SDS011;11727;52.134;5.052;2023-03-07T16:27:52;3.03;;;0.57;;
23115;SDS011;11727;52.134;5.052;2023-03-07T16:30:22;2.95;;;0.40;;
23115;SDS011;11727;52.134;5.052;2023-03-07T16:32:49;0.30;;;0.22;;
23115;SDS011;11727;52.134;5.052;2023-03-07T16:35:19;1.08;;;0.30;;
23115;SDS011;11727;52.134;5.052;2023-03-07T16:37:50;0.55;;;0.30;;
23115;SDS011;11727;52.134;5.052;2023-03-07T16:40:17;4.47;;;0.60;;
23115;SDS011;11727;52.134;5.052;2023-03-07T16:42:44;1.25;;;0.40;;
23115;SDS011;11727;52.134;5.052;2023-03-07T16:45:29;0.80;;;0.40;;
23115;SDS011;11727;52.134;5.052;2023-03-07T16:47:59;0.30;;;0.22;;
23115;SDS011;11727;52.134;5.052;2023-03-07T16:50:30;2.33;;;0.63;;
23115;SDS011;11727;52.134;5.052;2023-03-07T16:52:57;1.35;;;0.40;;
23115;SDS011;11727;52.134;5.052;2023-03-07T16:55:23;1.00;;;0.47;;
23115;SDS011;11727;52.134;5.052;2023-03-07T16:57:50;4.22;;;0.57;;
23115;SDS011;11727;52.134;5.052;2023-03-07T17:00:19;1.00;;;0.45;;
23115;SDS011;11727;52.134;5.052;2023-03-07T17:02:50;0.80;;;0.40;;
23115;SDS011;11727;52.134;5.052;2023-03-07T17:05:27;3.13;;;0.52;;
23115;SDS011;11727;52.134;5.052;2023-03-07T17:07:54;0.90;;;0.40;;
23115;SDS011;11727;52.134;5.052;2023-03-07T17:10:21;2.72;;;0.45;;
23115;SDS011;11727;52.134;5.052;2023-03-07T17:12:48;0.70;;;0.40;;
23115;SDS011;11727;52.134;5.052;2023-03-07T17:15:16;1.13;;;0.80;;
23115;SDS011;11727;52.134;5.052;2023-03-07T17:17:44;2.55;;;0.70;;
23115;SDS011;11727;52.134;5.052;2023-03-07T17:20:11;4.82;;;0.50;;
23115;SDS011;11727;52.134;5.052;2023-03-07T17:22:42;1.42;;;0.40;;
23115;SDS011;11727;52.134;5.052;2023-03-07T17:25:07;0.43;;;0.38;;
23115;SDS011;11727;52.134;5.052;2023-03-07T17:27:33;0.52;;;0.40;;
23115;SDS011;11727;52.134;5.052;2023-03-07T17:32:26;2.05;;;0.60;;
23115;SDS011;11727;52.134;5.052;2023-03-07T17:34:52;3.92;;;0.73;;
23115;SDS011;11727;52.134;5.052;2023-03-07T17:37:18;3.50;;;0.85;;
23115;SDS011;11727;52.134;5.052;2023-03-07T17:39:44;4.18;;;0.73;;
23115;SDS011;11727;52.134;5.052;2023-03-07T17:42:10;1.83;;;0.60;;
23115;SDS011;11727;52.134;5.052;2023-03-07T17:44:36;3.67;;;0.55;;
23115;SDS011;11727;52.134;5.052;2023-03-07T17:47:01;1.85;;;0.38;;
23115;SDS011;11727;52.134;5.052;2023-03-07T17:49:32;0.20;;;0.13;;
23115;SDS011;11727;52.134;5.052;2023-03-07T17:51:59;1.50;;;0.40;;
23115;SDS011;11727;52.134;5.052;2023-03-07T17:54:24;0.95;;;0.50;;
23115;SDS011;11727;52.134;5.052;2023-03-07T17:56:50;0.68;;;0.20;;
23115;SDS011;11727;52.134;5.052;2023-03-07T17:59:15;1.75;;;0.20;;
23115;SDS011;11727;52.134;5.052;2023-03-07T18:01:41;0.75;;;0.40;;